Vernon, Oklahoma
Current Conditions -  °F | °C
As of 10:08 PM on Saturday 22 Nov 2014 (Local Time) from KMLC Reporting Station
Broken Clouds Broken Clouds  
Wind Chill: 56°   Ceiling: 1300
Heat Index: 56°   Visibility: 8mi
Dew Point: 55°   Wind: 6mph
Humidity: 97%   Direction: 110°ESE
Pressure: 29.73"   Gusts: NA
Location:  35.2158°N, 95.8817°W
Report Text: KMLC 230408Z AUTO 11005KT 8SM BKN013 BKN110 13/13 A2973 RMK AO2 T01330128
Loading
Personal Weather Stations






























Interactive Weather Map New forecast layout! Learn more

10-Day Weather Forecast

Advertisements
Track Severe Weather on mobile